sensor_id;sensor_type;location;lat;lon;timestamp;pressure;altitude;pressure_sealevel;temperature;humidity
75166;BME280;63747;48.042;10.088;2022-11-27T00:05:30;96395.78;;;-1.98;71.58
75166;BME280;63747;48.042;10.088;2022-11-27T00:09:13;96398.38;;;-1.98;71.70
75166;BME280;63747;48.042;10.088;2022-11-27T00:12:15;96386.38;;;-2.00;71.57
75166;BME280;63747;48.042;10.088;2022-11-27T00:15:24;96392.47;;;-2.01;71.69
75166;BME280;63747;48.042;10.088;2022-11-27T00:18:52;96381.28;;;-2.03;71.59
75166;BME280;63747;48.042;10.088;2022-11-27T00:22:16;96394.28;;;-2.03;71.61
75166;BME280;63747;48.042;10.088;2022-11-27T00:25:17;96389.31;;;-2.08;71.35
75166;BME280;63747;48.042;10.088;2022-11-27T00:28:19;96380.94;;;-2.14;71.62
75166;BME280;63747;48.042;10.088;2022-11-27T00:31:25;96378.53;;;-2.19;71.85
75166;BME280;63747;48.042;10.088;2022-11-27T00:34:40;96380.22;;;-2.18;72.01
75166;BME280;63747;48.042;10.088;2022-11-27T00:37:41;96376.59;;;-2.14;71.76
75166;BME280;63747;48.042;10.088;2022-11-27T00:40:43;96370.41;;;-2.11;71.63
75166;BME280;63747;48.042;10.088;2022-11-27T00:43:57;96373.84;;;-2.11;71.62
75166;BME280;63747;48.042;10.088;2022-11-27T00:46:58;96363.59;;;-2.14;71.73
75166;BME280;63747;48.042;10.088;2022-11-27T00:50:00;96364.63;;;-2.18;71.49
75166;BME280;63747;48.042;10.088;2022-11-27T00:53:01;96357.09;;;-2.24;71.75
75166;BME280;63747;48.042;10.088;2022-11-27T00:56:02;96357.25;;;-2.27;71.79
75166;BME280;63747;48.042;10.088;2022-11-27T00:59:05;96358.03;;;-2.25;71.91
75166;BME280;63747;48.042;10.088;2022-11-27T01:02:29;96357.06;;;-2.22;71.82
75166;BME280;63747;48.042;10.088;2022-11-27T01:05:30;96357.38;;;-2.30;72.15
75166;BME280;63747;48.042;10.088;2022-11-27T01:08:51;96344.59;;;-2.35;72.05
75166;BME280;63747;48.042;10.088;2022-11-27T01:11:57;96344.81;;;-2.39;72.55
75166;BME280;63747;48.042;10.088;2022-11-27T01:15:00;96341.34;;;-2.40;72.56
75166;BME280;63747;48.042;10.088;2022-11-27T01:18:03;96343.19;;;-2.42;72.64
75166;BME280;63747;48.042;10.088;2022-11-27T01:21:42;96338.84;;;-2.41;72.68
75166;BME280;63747;48.042;10.088;2022-11-27T01:24:50;96331.81;;;-2.39;72.50
75166;BME280;63747;48.042;10.088;2022-11-27T01:27:58;96330.91;;;-2.38;72.33
75166;BME280;63747;48.042;10.088;2022-11-27T01:31:15;96320.16;;;-2.49;72.35
75166;BME280;63747;48.042;10.088;2022-11-27T01:34:27;96311.56;;;-2.52;72.41
75166;BME280;63747;48.042;10.088;2022-11-27T01:37:28;96310.09;;;-2.57;72.44
75166;BME280;63747;48.042;10.088;2022-11-27T01:40:31;96304.19;;;-2.61;72.63
75166;BME280;63747;48.042;10.088;2022-11-27T01:47:38;96305.19;;;-2.63;72.81
75166;BME280;63747;48.042;10.088;2022-11-27T01:50:54;96306.72;;;-2.59;72.44
75166;BME280;63747;48.042;10.088;2022-11-27T01:54:04;96302.38;;;-2.59;72.29
75166;BME280;63747;48.042;10.088;2022-11-27T01:57:19;96292.81;;;-2.58;72.27
75166;BME280;63747;48.042;10.088;2022-11-27T02:00:38;96281.59;;;-2.59;72.22
75166;BME280;63747;48.042;10.088;2022-11-27T02:03:52;96269.47;;;-2.58;72.27
75166;BME280;63747;48.042;10.088;2022-11-27T02:06:57;96270.53;;;-2.62;71.96
75166;BME280;63747;48.042;10.088;2022-11-27T02:09:59;96273.31;;;-2.67;72.22
75166;BME280;63747;48.042;10.088;2022-11-27T02:13:13;96273.31;;;-2.67;72.44
75166;BME280;63747;48.042;10.088;2022-11-27T02:19:39;96256.97;;;-2.69;72.17
75166;BME280;63747;48.042;10.088;2022-11-27T02:29:57;96238.03;;;-2.71;72.04
75166;BME280;63747;48.042;10.088;2022-11-27T02:33:11;96231.16;;;-2.72;71.94
75166;BME280;63747;48.042;10.088;2022-11-27T02:36:35;96236.50;;;-2.75;71.78
75166;BME280;63747;48.042;10.088;2022-11-27T02:46:44;96242.84;;;-2.82;71.81
75166;BME280;63747;48.042;10.088;2022-11-27T02:49:52;96241.19;;;-2.83;71.91
75166;BME280;63747;48.042;10.088;2022-11-27T02:53:00;96240.38;;;-2.85;71.81
75166;BME280;63747;48.042;10.088;2022-11-27T02:56:29;96243.69;;;-2.82;71.94
75166;BME280;63747;48.042;10.088;2022-11-27T02:59:50;96235.06;;;-2.82;71.70
75166;BME280;63747;48.042;10.088;2022-11-27T03:03:02;96240.63;;;-2.91;71.94
75166;BME280;63747;48.042;10.088;2022-11-27T03:06:09;96237.53;;;-2.99;72.39
75166;BME280;63747;48.042;10.088;2022-11-27T03:09:34;96221.91;;;-2.98;72.37
75166;BME280;63747;48.042;10.088;2022-11-27T03:12:42;96208.09;;;-2.98;72.36
75166;BME280;63747;48.042;10.088;2022-11-27T03:16:04;96203.69;;;-2.96;72.53
75166;BME280;63747;48.042;10.088;2022-11-27T03:19:56;96196.69;;;-2.94;72.52
75166;BME280;63747;48.042;10.088;2022-11-27T03:22:59;96212.91;;;-3.10;72.33
75166;BME280;63747;48.042;10.088;2022-11-27T03:26:05;96199.47;;;-3.19;72.67
75166;BME280;63747;48.042;10.088;2022-11-27T03:29:41;96203.00;;;-3.20;72.89
75166;BME280;63747;48.042;10.088;2022-11-27T03:32:44;96204.66;;;-3.19;72.66
75166;BME280;63747;48.042;10.088;2022-11-27T03:35:51;96193.53;;;-3.21;72.51
75166;BME280;63747;48.042;10.088;2022-11-27T03:38:53;96195.41;;;-3.25;72.41
75166;BME280;63747;48.042;10.088;2022-11-27T03:42:17;96202.47;;;-3.28;72.24
75166;BME280;63747;48.042;10.088;2022-11-27T03:45:34;96203.47;;;-3.31;72.17
75166;BME280;63747;48.042;10.088;2022-11-27T03:48:44;96200.47;;;-3.42;72.26
75166;BME280;63747;48.042;10.088;2022-11-27T03:51:53;96192.88;;;-3.47;72.34
75166;BME280;63747;48.042;10.088;2022-11-27T03:54:58;96201.56;;;-3.48;72.53
75166;BME280;63747;48.042;10.088;2022-11-27T03:58:13;96207.31;;;-3.62;72.46
75166;BME280;63747;48.042;10.088;2022-11-27T04:01:16;96204.38;;;-3.74;73.02
75166;BME280;63747;48.042;10.088;2022-11-27T04:04:19;96203.78;;;-3.81;72.81
75166;BME280;63747;48.042;10.088;2022-11-27T04:07:19;96202.34;;;-3.88;72.90
75166;BME280;63747;48.042;10.088;2022-11-27T04:10:20;96193.66;;;-3.87;72.77
75166;BME280;63747;48.042;10.088;2022-11-27T04:13:21;96202.41;;;-3.90;72.91
75166;BME280;63747;48.042;10.088;2022-11-27T04:16:22;96203.50;;;-3.95;72.90
75166;BME280;63747;48.042;10.088;2022-11-27T04:19:23;96189.88;;;-4.00;72.86
75166;BME280;63747;48.042;10.088;2022-11-27T04:22:24;96193.63;;;-4.07;72.79
75166;BME280;63747;48.042;10.088;2022-11-27T04:25:25;96193.75;;;-4.10;72.88
75166;BME280;63747;48.042;10.088;2022-11-27T04:28:25;96201.75;;;-4.17;73.05
75166;BME280;63747;48.042;10.088;2022-11-27T04:31:26;96206.69;;;-4.10;72.98
75166;BME280;63747;48.042;10.088;2022-11-27T04:34:27;96203.25;;;-4.11;72.72
75166;BME280;63747;48.042;10.088;2022-11-27T04:37:28;96199.03;;;-4.13;72.76
75166;BME280;63747;48.042;10.088;2022-11-27T04:40:28;96201.59;;;-4.12;72.49
75166;BME280;63747;48.042;10.088;2022-11-27T04:43:29;96202.19;;;-4.05;72.51
75166;BME280;63747;48.042;10.088;2022-11-27T04:46:30;96196.69;;;-3.98;72.22
75166;BME280;63747;48.042;10.088;2022-11-27T04:49:31;96193.44;;;-4.03;72.16
75166;BME280;63747;48.042;10.088;2022-11-27T04:52:31;96188.31;;;-4.04;72.08
75166;BME280;63747;48.042;10.088;2022-11-27T04:55:34;96189.88;;;-4.00;71.92
75166;BME280;63747;48.042;10.088;2022-11-27T04:58:34;96190.00;;;-4.03;71.68
75166;BME280;63747;48.042;10.088;2022-11-27T05:01:35;96198.72;;;-4.06;71.85
75166;BME280;63747;48.042;10.088;2022-11-27T05:04:36;96204.88;;;-4.08;71.86
75166;BME280;63747;48.042;10.088;2022-11-27T05:07:37;96200.16;;;-4.21;72.01
75166;BME280;63747;48.042;10.088;2022-11-27T05:10:38;96210.50;;;-4.19;72.16
75166;BME280;63747;48.042;10.088;2022-11-27T05:13:39;96202.53;;;-4.15;72.17
75166;BME280;63747;48.042;10.088;2022-11-27T05:16:40;96197.72;;;-4.24;72.09
75166;BME280;63747;48.042;10.088;2022-11-27T05:19:41;96196.69;;;-4.20;72.12
75166;BME280;63747;48.042;10.088;2022-11-27T05:22:41;96194.38;;;-4.27;71.81
75166;BME280;63747;48.042;10.088;2022-11-27T05:25:43;96198.84;;;-4.31;72.03
75166;BME280;63747;48.042;10.088;2022-11-27T05:28:44;96188.31;;;-4.26;71.77
75166;BME280;63747;48.042;10.088;2022-11-27T05:31:45;96194.22;;;-4.23;71.42
75166;BME280;63747;48.042;10.088;2022-11-27T05:34:46;96194.44;;;-4.29;71.53
75166;BME280;63747;48.042;10.088;2022-11-27T05:37:48;96185.91;;;-4.31;71.56
75166;BME280;63747;48.042;10.088;2022-11-27T05:40:49;96192.09;;;-4.35;71.73
75166;BME280;63747;48.042;10.088;2022-11-27T05:43:50;96185.25;;;-4.36;71.57
75166;BME280;63747;48.042;10.088;2022-11-27T05:46:50;96179.47;;;-4.43;71.60
75166;BME280;63747;48.042;10.088;2022-11-27T05:49:51;96184.56;;;-4.41;71.85
75166;BME280;63747;48.042;10.088;2022-11-27T05:52:52;96166.41;;;-4.39;71.66
75166;BME280;63747;48.042;10.088;2022-11-27T05:55:53;96169.84;;;-4.39;71.87
75166;BME280;63747;48.042;10.088;2022-11-27T05:58:53;96167.13;;;-4.36;71.64
75166;BME280;63747;48.042;10.088;2022-11-27T06:01:54;96155.88;;;-4.35;71.75
75166;BME280;63747;48.042;10.088;2022-11-27T06:04:55;96162.09;;;-4.39;71.65
75166;BME280;63747;48.042;10.088;2022-11-27T06:07:55;96167.03;;;-4.56;71.89
75166;BME280;63747;48.042;10.088;2022-11-27T06:10:56;96162.56;;;-4.75;72.09
75166;BME280;63747;48.042;10.088;2022-11-27T06:13:57;96168.25;;;-4.88;72.52
75166;BME280;63747;48.042;10.088;2022-11-27T06:16:57;96178.34;;;-4.82;72.76
75166;BME280;63747;48.042;10.088;2022-11-27T06:19:58;96167.78;;;-4.76;72.23
75166;BME280;63747;48.042;10.088;2022-11-27T06:22:59;96156.38;;;-4.71;72.28
75166;BME280;63747;48.042;10.088;2022-11-27T06:26:09;96162.94;;;-4.62;71.95
75166;BME280;63747;48.042;10.088;2022-11-27T06:29:10;96154.47;;;-4.65;71.61
75166;BME280;63747;48.042;10.088;2022-11-27T06:32:11;96149.59;;;-4.73;71.77
75166;BME280;63747;48.042;10.088;2022-11-27T06:35:12;96151.28;;;-4.72;71.94
75166;BME280;63747;48.042;10.088;2022-11-27T06:38:12;96148.91;;;-4.78;71.96
75166;BME280;63747;48.042;10.088;2022-11-27T06:41:18;96149.63;;;-4.75;71.98
75166;BME280;63747;48.042;10.088;2022-11-27T06:44:19;96146.09;;;-4.72;71.84
75166;BME280;63747;48.042;10.088;2022-11-27T06:47:20;96140.19;;;-4.76;71.80
75166;BME280;63747;48.042;10.088;2022-11-27T06:50:21;96145.59;;;-4.82;72.08
75166;BME280;63747;48.042;10.088;2022-11-27T06:53:22;96144.06;;;-4.87;72.21
75166;BME280;63747;48.042;10.088;2022-11-27T06:56:24;96148.47;;;-4.89;72.27
75166;BME280;63747;48.042;10.088;2022-11-27T06:59:25;96145.81;;;-4.88;72.53
75166;BME280;63747;48.042;10.088;2022-11-27T07:02:26;96143.81;;;-4.80;72.58
75166;BME280;63747;48.042;10.088;2022-11-27T07:05:29;96140.19;;;-4.76;72.37
75166;BME280;63747;48.042;10.088;2022-11-27T07:08:30;96137.78;;;-4.80;72.18
75166;BME280;63747;48.042;10.088;2022-11-27T07:11:31;96140.09;;;-4.73;72.38
75166;BME280;63747;48.042;10.088;2022-11-27T07:14:32;96138.38;;;-4.74;72.29
75166;BME280;63747;48.042;10.088;2022-11-27T07:17:33;96134.25;;;-4.78;72.21
75166;BME280;63747;48.042;10.088;2022-11-27T07:20:34;96134.25;;;-4.78;72.33
75166;BME280;63747;48.042;10.088;2022-11-27T07:23:35;96141.09;;;-4.77;72.49
75166;BME280;63747;48.042;10.088;2022-11-27T07:26:36;96158.66;;;-4.63;72.52
75166;BME280;63747;48.042;10.088;2022-11-27T07:29:37;96156.84;;;-4.59;72.36
75166;BME280;63747;48.042;10.088;2022-11-27T07:32:38;96156.03;;;-4.61;72.60
75166;BME280;63747;48.042;10.088;2022-11-27T07:35:38;96154.25;;;-4.59;72.62
75166;BME280;63747;48.042;10.088;2022-11-27T07:38:40;96156.88;;;-4.61;72.82
75166;BME280;63747;48.042;10.088;2022-11-27T07:41:41;96166.44;;;-4.63;72.92
75166;BME280;63747;48.042;10.088;2022-11-27T07:44:41;96165.19;;;-4.53;72.89
75166;BME280;63747;48.042;10.088;2022-11-27T07:47:42;96165.19;;;-4.53;72.70
75166;BME280;63747;48.042;10.088;2022-11-27T07:50:43;96163.25;;;-4.48;73.00
75166;BME280;63747;48.042;10.088;2022-11-27T07:53:44;96160.03;;;-4.31;72.87
75166;BME280;63747;48.042;10.088;2022-11-27T07:56:44;96154.38;;;-4.19;72.64
75166;BME280;63747;48.042;10.088;2022-11-27T07:59:45;96156.59;;;-4.09;72.49
75166;BME280;63747;48.042;10.088;2022-11-27T08:02:46;96150.13;;;-3.99;72.70
75166;BME280;63747;48.042;10.088;2022-11-27T08:05:47;96146.19;;;-3.88;72.32
75166;BME280;63747;48.042;10.088;2022-11-27T08:08:48;96143.03;;;-3.74;72.32
75166;BME280;63747;48.042;10.088;2022-11-27T08:11:48;96150.44;;;-3.65;72.08
75166;BME280;63747;48.042;10.088;2022-11-27T08:14:49;96140.97;;;-3.66;72.30
75166;BME280;63747;48.042;10.088;2022-11-27T08:17:50;96144.94;;;-3.57;72.35
75166;BME280;63747;48.042;10.088;2022-11-27T08:20:51;96136.38;;;-3.59;72.63
75166;BME280;63747;48.042;10.088;2022-11-27T08:23:51;96127.97;;;-3.44;72.68
75166;BME280;63747;48.042;10.088;2022-11-27T08:26:52;96122.19;;;-3.30;72.49
75166;BME280;63747;48.042;10.088;2022-11-27T08:29:53;96106.13;;;-3.19;72.52
75166;BME280;63747;48.042;10.088;2022-11-27T08:32:54;96093.06;;;-2.97;72.36
75166;BME280;63747;48.042;10.088;2022-11-27T08:35:54;96089.97;;;-2.87;72.02
75166;BME280;63747;48.042;10.088;2022-11-27T08:38:55;96083.75;;;-2.83;72.24
75166;BME280;63747;48.042;10.088;2022-11-27T08:41:56;96088.31;;;-2.69;72.12
75166;BME280;63747;48.042;10.088;2022-11-27T08:44:57;96086.03;;;-2.58;72.04
75166;BME280;63747;48.042;10.088;2022-11-27T08:47:58;96090.34;;;-2.39;72.18
75166;BME280;63747;48.042;10.088;2022-11-27T08:50:58;96097.75;;;-2.13;72.04
75166;BME280;63747;48.042;10.088;2022-11-27T08:53:59;96092.94;;;-2.03;72.26
75166;BME280;63747;48.042;10.088;2022-11-27T08:57:00;96091.56;;;-1.93;71.92
75166;BME280;63747;48.042;10.088;2022-11-27T09:00:00;96101.13;;;-1.76;71.93
75166;BME280;63747;48.042;10.088;2022-11-27T09:03:01;96103.25;;;-1.50;71.99
75166;BME280;63747;48.042;10.088;2022-11-27T09:06:05;96085.69;;;-1.29;72.38
75166;BME280;63747;48.042;10.088;2022-11-27T09:09:06;96083.38;;;-1.18;72.11
75166;BME280;63747;48.042;10.088;2022-11-27T09:12:07;96087.53;;;-1.14;72.08
75166;BME280;63747;48.042;10.088;2022-11-27T09:15:08;96082.97;;;-1.10;72.11
75166;BME280;63747;48.042;10.088;2022-11-27T09:18:08;96091.31;;;-1.03;71.95
75166;BME280;63747;48.042;10.088;2022-11-27T09:21:10;96093.91;;;-1.03;71.90
75166;BME280;63747;48.042;10.088;2022-11-27T09:24:11;96089.00;;;-0.92;71.99
75166;BME280;63747;48.042;10.088;2022-11-27T09:27:12;96089.00;;;-0.76;72.20
75166;BME280;63747;48.042;10.088;2022-11-27T09:30:13;96089.78;;;-0.59;72.10
75166;BME280;63747;48.042;10.088;2022-11-27T09:33:13;96078.94;;;-0.51;71.93
75166;BME280;63747;48.042;10.088;2022-11-27T09:36:18;96070.59;;;-0.42;72.16
75166;BME280;63747;48.042;10.088;2022-11-27T09:39:19;96056.84;;;-0.44;72.14
75166;BME280;63747;48.042;10.088;2022-11-27T09:45:42;96064.94;;;-0.18;71.89
75166;BME280;63747;48.042;10.088;2022-11-27T09:48:48;96060.28;;;-0.13;71.55
75166;BME280;63747;48.042;10.088;2022-11-27T09:51:55;96057.88;;;-0.16;71.20
75166;BME280;63747;48.042;10.088;2022-11-27T09:55:04;96041.16;;;-0.12;71.45
75166;BME280;63747;48.042;10.088;2022-11-27T09:58:15;96040.72;;;-0.05;71.40
75166;BME280;63747;48.042;10.088;2022-11-27T10:01:21;96042.72;;;0.20;71.15
75166;BME280;63747;48.042;10.088;2022-11-27T10:04:23;96038.47;;;0.48;71.02
75166;BME280;63747;48.042;10.088;2022-11-27T10:07:50;96045.78;;;0.71;70.57
75166;BME280;63747;48.042;10.088;2022-11-27T10:11:16;96043.53;;;0.94;70.33
75166;BME280;63747;48.042;10.088;2022-11-27T10:14:45;96029.91;;;1.17;70.03
75166;BME280;63747;48.042;10.088;2022-11-27T10:18:00;96025.00;;;1.40;70.03
75166;BME280;63747;48.042;10.088;2022-11-27T10:21:10;96023.13;;;1.69;69.58
75166;BME280;63747;48.042;10.088;2022-11-27T10:27:40;96024.00;;;2.09;69.03
75166;BME280;63747;48.042;10.088;2022-11-27T10:30:50;96013.59;;;1.95;68.75
75166;BME280;63747;48.042;10.088;2022-11-27T10:33:54;96029.75;;;2.14;69.11
75166;BME280;63747;48.042;10.088;2022-11-27T10:36:57;96015.13;;;2.11;68.31
75166;BME280;63747;48.042;10.088;2022-11-27T10:40:30;96009.56;;;2.16;68.52
75166;BME280;63747;48.042;10.088;2022-11-27T10:43:34;96003.22;;;2.46;68.41
75166;BME280;63747;48.042;10.088;2022-11-27T10:46:36;96001.34;;;2.48;68.11
75166;BME280;63747;48.042;10.088;2022-11-27T10:49:39;95993.66;;;2.83;68.29
75166;BME280;63747;48.042;10.088;2022-11-27T10:53:02;95985.75;;;3.21;67.99
75166;BME280;63747;48.042;10.088;2022-11-27T10:59:12;95986.41;;;3.48;67.44
75166;BME280;63747;48.042;10.088;2022-11-27T11:02:32;95982.00;;;3.73;67.25
75166;BME280;63747;48.042;10.088;2022-11-27T11:05:33;95976.09;;;3.58;66.61
75166;BME280;63747;48.042;10.088;2022-11-27T11:08:34;95969.19;;;3.57;67.04
75166;BME280;63747;48.042;10.088;2022-11-27T11:11:36;95959.84;;;3.77;67.34
75166;BME280;63747;48.042;10.088;2022-11-27T11:14:36;95960.31;;;4.06;66.96
75166;BME280;63747;48.042;10.088;2022-11-27T11:17:37;95956.81;;;4.29;66.37
75166;BME280;63747;48.042;10.088;2022-11-27T11:20:45;95951.69;;;4.50;65.94
75166;BME280;63747;48.042;10.088;2022-11-27T11:23:55;95954.81;;;4.67;66.21
75166;BME280;63747;48.042;10.088;2022-11-27T11:26:59;95946.47;;;4.84;65.38
75166;BME280;63747;48.042;10.088;2022-11-27T11:30:02;95952.56;;;4.96;65.34
75166;BME280;63747;48.042;10.088;2022-11-27T11:33:05;95941.41;;;5.14;65.03
75166;BME280;63747;48.042;10.088;2022-11-27T11:36:09;95927.16;;;5.28;64.79
75166;BME280;63747;48.042;10.088;2022-11-27T11:39:21;95922.50;;;5.32;64.29
75166;BME280;63747;48.042;10.088;2022-11-27T11:42:29;95910.88;;;5.46;64.67
75166;BME280;63747;48.042;10.088;2022-11-27T11:45:32;95903.06;;;5.55;64.40
75166;BME280;63747;48.042;10.088;2022-11-27T11:48:34;95893.97;;;5.59;64.11
75166;BME280;63747;48.042;10.088;2022-11-27T11:52:05;95894.88;;;5.69;63.62
75166;BME280;63747;48.042;10.088;2022-11-27T11:55:26;95896.63;;;5.80;63.39
75166;BME280;63747;48.042;10.088;2022-11-27T11:58:35;95893.06;;;6.02;63.97
75166;BME280;63747;48.042;10.088;2022-11-27T12:14:46;95877.53;;;6.91;61.25
75166;BME280;63747;48.042;10.088;2022-11-27T12:18:10;95863.72;;;7.08;60.51
75166;BME280;63747;48.042;10.088;2022-11-27T12:21:17;95863.28;;;7.03;60.02
75166;BME280;63747;48.042;10.088;2022-11-27T12:24:37;95851.53;;;7.07;60.41
75166;BME280;63747;48.042;10.088;2022-11-27T12:31:48;95835.44;;;7.29;59.72
75166;BME280;63747;48.042;10.088;2022-11-27T12:48:15;95804.09;;;7.75;57.99
75166;BME280;63747;48.042;10.088;2022-11-27T12:51:22;95801.69;;;7.91;57.49
75166;BME280;63747;48.042;10.088;2022-11-27T12:58:03;95793.19;;;8.07;57.05
75166;BME280;63747;48.042;10.088;2022-11-27T13:01:18;95780.59;;;8.28;56.26
75166;BME280;63747;48.042;10.088;2022-11-27T13:04:26;95782.66;;;8.34;56.55
75166;BME280;63747;48.042;10.088;2022-11-27T13:07:45;95790.47;;;8.54;55.95
75166;BME280;63747;48.042;10.088;2022-11-27T13:11:07;95778.38;;;8.61;55.20
75166;BME280;63747;48.042;10.088;2022-11-27T13:14:18;95775.66;;;8.70;54.45
75166;BME280;63747;48.042;10.088;2022-11-27T13:17:19;95768.13;;;8.76;53.91
75166;BME280;63747;48.042;10.088;2022-11-27T13:20:26;95768.75;;;8.60;53.40
75166;BME280;63747;48.042;10.088;2022-11-27T13:23:32;95761.66;;;8.60;53.28
75166;BME280;63747;48.042;10.088;2022-11-27T13:26:38;95764.50;;;8.77;52.88
75166;BME280;63747;48.042;10.088;2022-11-27T13:32:51;95754.56;;;8.88;52.28
75166;BME280;63747;48.042;10.088;2022-11-27T13:35:53;95748.38;;;8.97;52.22
75166;BME280;63747;48.042;10.088;2022-11-27T13:38:58;95745.25;;;8.84;52.08
75166;BME280;63747;48.042;10.088;2022-11-27T13:42:18;95750.38;;;8.68;51.90
75166;BME280;63747;48.042;10.088;2022-11-27T13:45:32;95741.22;;;8.62;52.75
75166;BME280;63747;48.042;10.088;2022-11-27T13:48:38;95734.53;;;8.68;52.56
75166;BME280;63747;48.042;10.088;2022-11-27T13:51:40;95727.78;;;8.74;52.38
75166;BME280;63747;48.042;10.088;2022-11-27T13:55:11;95733.97;;;8.64;52.51
75166;BME280;63747;48.042;10.088;2022-11-27T13:58:36;95738.94;;;8.50;52.90
75166;BME280;63747;48.042;10.088;2022-11-27T14:01:37;95730.59;;;8.44;53.30
75166;BME280;63747;48.042;10.088;2022-11-27T14:04:48;95743.56;;;8.38;52.75
75166;BME280;63747;48.042;10.088;2022-11-27T14:07:53;95735.41;;;8.31;52.84
75166;BME280;63747;48.042;10.088;2022-11-27T14:11:02;95728.59;;;8.29;53.06
75166;BME280;63747;48.042;10.088;2022-11-27T14:14:20;95723.84;;;8.32;53.40
75166;BME280;63747;48.042;10.088;2022-11-27T14:17:26;95718.56;;;8.32;53.17
75166;BME280;63747;48.042;10.088;2022-11-27T14:20:34;95718.38;;;8.16;53.08
75166;BME280;63747;48.042;10.088;2022-11-27T14:23:49;95716.22;;;8.02;53.59
75166;BME280;63747;48.042;10.088;2022-11-27T14:26:54;95721.25;;;7.95;53.95
75166;BME280;63747;48.042;10.088;2022-11-27T14:29:55;95722.34;;;7.93;53.82
75166;BME280;63747;48.042;10.088;2022-11-27T14:32:55;95716.28;;;7.73;54.20
75166;BME280;63747;48.042;10.088;2022-11-27T14:35:58;95725.25;;;6.75;57.23
75166;BME280;63747;48.042;10.088;2022-11-27T14:39:00;95720.03;;;5.94;59.23
75166;BME280;63747;48.042;10.088;2022-11-27T14:42:05;95729.25;;;4.96;62.08
75166;BME280;63747;48.042;10.088;2022-11-27T14:45:14;95727.28;;;4.77;62.92
75166;BME280;63747;48.042;10.088;2022-11-27T14:48:26;95727.31;;;4.22;64.13
75166;BME280;63747;48.042;10.088;2022-11-27T14:51:30;95716.22;;;3.85;65.06
75166;BME280;63747;48.042;10.088;2022-11-27T14:54:37;95706.69;;;3.50;65.99
75166;BME280;63747;48.042;10.088;2022-11-27T14:57:38;95703.69;;;3.33;66.41
75166;BME280;63747;48.042;10.088;2022-11-27T15:00:56;95707.53;;;3.05;67.20
75166;BME280;63747;48.042;10.088;2022-11-27T15:03:59;95701.63;;;2.79;68.01
75166;BME280;63747;48.042;10.088;2022-11-27T15:07:04;95704.59;;;2.74;68.16
75166;BME280;63747;48.042;10.088;2022-11-27T15:10:50;95704.53;;;2.15;70.07
75166;BME280;63747;48.042;10.088;2022-11-27T15:13:48;95707.47;;;1.61;71.65
75166;BME280;63747;48.042;10.088;2022-11-27T15:16:52;95701.00;;;1.54;71.73
75166;BME280;63747;48.042;10.088;2022-11-27T15:19:54;95700.78;;;1.57;71.39
75166;BME280;63747;48.042;10.088;2022-11-27T15:22:57;95698.47;;;1.65;70.89
75166;BME280;63747;48.042;10.088;2022-11-27T15:29:01;95684.38;;;1.55;70.81
75166;BME280;63747;48.042;10.088;2022-11-27T15:32:14;95677.69;;;1.64;70.63
75166;BME280;63747;48.042;10.088;2022-11-27T15:35:26;95666.69;;;1.71;70.20
75166;BME280;63747;48.042;10.088;2022-11-27T15:38:27;95663.75;;;1.63;70.35
75166;BME280;63747;48.042;10.088;2022-11-27T15:41:28;95646.91;;;1.43;70.50
75166;BME280;63747;48.042;10.088;2022-11-27T15:44:32;95641.28;;;1.24;71.19
75166;BME280;63747;48.042;10.088;2022-11-27T15:47:35;95640.75;;;1.19;71.40
75166;BME280;63747;48.042;10.088;2022-11-27T15:50:36;95624.53;;;1.26;71.42
75166;BME280;63747;48.042;10.088;2022-11-27T15:53:36;95623.72;;;1.26;71.00
75166;BME280;63747;48.042;10.088;2022-11-27T15:56:37;95617.13;;;1.20;71.13
75166;BME280;63747;48.042;10.088;2022-11-27T15:59:38;95603.66;;;1.14;70.95
75166;BME280;63747;48.042;10.088;2022-11-27T16:02:39;95604.94;;;0.95;71.56
75166;BME280;63747;48.042;10.088;2022-11-27T16:05:40;95610.59;;;0.76;72.20
75166;BME280;63747;48.042;10.088;2022-11-27T16:08:41;95615.56;;;0.79;72.50
75166;BME280;63747;48.042;10.088;2022-11-27T16:11:42;95606.59;;;0.58;73.10
75166;BME280;63747;48.042;10.088;2022-11-27T16:14:42;95604.72;;;0.60;73.69
75166;BME280;63747;48.042;10.088;2022-11-27T16:17:43;95609.00;;;0.87;73.31
75166;BME280;63747;48.042;10.088;2022-11-27T16:20:44;95597.91;;;1.09;72.54
75166;BME280;63747;48.042;10.088;2022-11-27T16:23:44;95590.50;;;1.15;72.40
75166;BME280;63747;48.042;10.088;2022-11-27T16:26:45;95608.88;;;1.14;71.77
75166;BME280;63747;48.042;10.088;2022-11-27T16:29:46;95606.63;;;1.09;72.03
75166;BME280;63747;48.042;10.088;2022-11-27T16:32:46;95603.25;;;1.07;71.92
75166;BME280;63747;48.042;10.088;2022-11-27T16:35:47;95590.00;;;0.97;71.76
75166;BME280;63747;48.042;10.088;2022-11-27T16:38:51;95590.00;;;0.97;72.31
75166;BME280;63747;48.042;10.088;2022-11-27T16:41:53;95578.31;;;1.03;71.96
75166;BME280;63747;48.042;10.088;2022-11-27T16:44:54;95587.28;;;1.12;72.13
75166;BME280;63747;48.042;10.088;2022-11-27T16:47:54;95579.44;;;1.12;71.85
75166;BME280;63747;48.042;10.088;2022-11-27T16:51:07;95574.34;;;1.10;71.91
75166;BME280;63747;48.042;10.088;2022-11-27T16:54:10;95570.06;;;0.96;72.19
75166;BME280;63747;48.042;10.088;2022-11-27T16:57:11;95561.50;;;0.82;72.45
75166;BME280;63747;48.042;10.088;2022-11-27T17:00:12;95555.88;;;0.88;72.53
75166;BME280;63747;48.042;10.088;2022-11-27T17:03:13;95554.84;;;0.90;72.44
75166;BME280;63747;48.042;10.088;2022-11-27T17:06:24;95549.81;;;1.00;72.38
75166;BME280;63747;48.042;10.088;2022-11-27T17:09:26;95553.78;;;0.93;72.49
75166;BME280;63747;48.042;10.088;2022-11-27T17:12:28;95552.41;;;1.00;72.61
75166;BME280;63747;48.042;10.088;2022-11-27T17:15:29;95550.66;;;0.88;72.27
75166;BME280;63747;48.042;10.088;2022-11-27T17:18:29;95544.28;;;0.79;72.66
75166;BME280;63747;48.042;10.088;2022-11-27T17:21:32;95542.22;;;0.84;72.50
75166;BME280;63747;48.042;10.088;2022-11-27T17:24:33;95542.75;;;0.89;72.34
75166;BME280;63747;48.042;10.088;2022-11-27T17:27:37;95536.69;;;0.89;72.48
75166;BME280;63747;48.042;10.088;2022-11-27T17:30:38;95535.19;;;0.97;72.39
75166;BME280;63747;48.042;10.088;2022-11-27T17:33:39;95521.22;;;0.98;72.07